createdAt,value
2023-02-05T00:00:41.711Z,5.22
2023-02-05T00:03:10.977Z,5.05
2023-02-05T00:05:38.475Z,4.13
2023-02-05T00:08:06.011Z,4.10
2023-02-05T00:10:34.192Z,4.70
2023-02-05T00:13:01.999Z,4.85
2023-02-05T00:15:30.138Z,3.80
2023-02-05T00:17:58.157Z,4.40
2023-02-05T00:20:25.661Z,4.38
2023-02-05T00:22:53.386Z,3.83
2023-02-05T00:25:20.885Z,3.20
2023-02-05T00:27:48.700Z,2.75
2023-02-05T00:30:16.926Z,3.53
2023-02-05T00:32:44.484Z,4.10
2023-02-05T00:35:17.492Z,3.03
2023-02-05T00:37:45.301Z,3.40
2023-02-05T00:40:13.001Z,2.35
2023-02-05T00:42:40.557Z,2.20
2023-02-05T00:45:13.490Z,2.65
2023-02-05T00:47:46.021Z,3.10
2023-02-05T00:50:13.557Z,2.25
2023-02-05T00:52:41.564Z,2.70
2023-02-05T00:55:11.765Z,2.28
2023-02-05T00:57:39.293Z,1.95
2023-02-05T01:00:08.937Z,2.67
2023-02-05T01:02:37.257Z,2.60
2023-02-05T01:05:11.732Z,2.10
2023-02-05T01:07:45.051Z,2.13
2023-02-05T01:10:15.283Z,2.72
2023-02-05T01:12:44.252Z,1.98
2023-02-05T01:15:14.992Z,2.28
2023-02-05T01:17:43.055Z,2.60
2023-02-05T01:20:13.590Z,2.08
2023-02-05T01:22:53.680Z,2.05
2023-02-05T01:25:24.283Z,2.17
2023-02-05T01:27:53.209Z,2.00
2023-02-05T01:30:21.029Z,2.20
2023-02-05T01:32:50.190Z,2.05
2023-02-05T01:35:20.714Z,1.77
2023-02-05T01:37:53.187Z,2.30
2023-02-05T01:40:23.808Z,2.08
2023-02-05T01:42:51.498Z,2.05
2023-02-05T01:45:32.435Z,2.03
2023-02-05T01:48:09.275Z,1.85
2023-02-05T01:50:50.024Z,1.50
2023-02-05T01:53:26.841Z,2.50
2023-02-05T01:56:27.376Z,1.83
2023-02-05T01:59:34.738Z,1.77
2023-02-05T02:02:09.299Z,2.20
2023-02-05T02:07:20.683Z,1.42
2023-02-05T02:09:56.134Z,2.33
2023-02-05T02:12:28.167Z,1.60
2023-02-05T02:15:06.049Z,1.92
2023-02-05T02:17:45.941Z,1.83
2023-02-05T02:20:19.211Z,1.70
2023-02-05T02:22:55.562Z,1.45
2023-02-05T02:25:29.045Z,1.85
2023-02-05T02:28:33.341Z,1.65
2023-02-05T02:31:09.798Z,1.30
2023-02-05T02:34:03.881Z,1.55
2023-02-05T02:36:38.186Z,1.45
2023-02-05T02:39:13.045Z,1.38
2023-02-05T02:41:55.226Z,1.45
2023-02-05T02:44:52.627Z,1.80
2023-02-05T02:47:23.605Z,1.60
2023-02-05T02:49:56.075Z,1.60
2023-02-05T02:52:29.180Z,1.40
2023-02-05T02:55:00.757Z,1.75
2023-02-05T02:57:29.895Z,1.77
2023-02-05T03:00:01.280Z,2.30
2023-02-05T03:02:36.260Z,1.77
2023-02-05T03:05:09.933Z,1.90
2023-02-05T03:07:52.553Z,1.50
2023-02-05T03:10:43.040Z,1.40
2023-02-05T03:13:11.951Z,2.40
2023-02-05T03:15:44.804Z,2.05
2023-02-05T03:18:15.446Z,1.50
2023-02-05T03:20:51.536Z,1.90
2023-02-05T03:23:19.679Z,2.83
2023-02-05T03:25:47.545Z,1.00
2023-02-05T03:28:18.752Z,1.73
2023-02-05T03:31:02.876Z,1.05
2023-02-05T03:33:42.318Z,1.58
2023-02-05T03:36:40.948Z,1.10
2023-02-05T03:39:21.610Z,1.35
2023-02-05T03:41:57.968Z,1.20
2023-02-05T03:45:18.774Z,1.45
2023-02-05T03:48:27.619Z,1.85
2023-02-05T03:51:14.032Z,0.88
2023-02-05T03:54:08.983Z,1.27
2023-02-05T03:56:57.061Z,1.70
2023-02-05T03:59:27.727Z,1.25
2023-02-05T04:01:56.132Z,1.40
2023-02-05T04:04:24.127Z,1.80
2023-02-05T04:06:53.534Z,2.00
2023-02-05T04:09:21.311Z,1.23
2023-02-05T04:11:49.135Z,1.52
2023-02-05T04:14:19.432Z,1.30
2023-02-05T04:16:47.156Z,2.00
2023-02-05T04:19:17.479Z,0.90
2023-02-05T04:21:46.672Z,1.60
2023-02-05T04:24:18.045Z,1.73
2023-02-05T04:26:46.884Z,1.20
2023-02-05T04:29:14.683Z,1.42
2023-02-05T04:31:46.265Z,2.58
2023-02-05T04:34:20.500Z,1.40
2023-02-05T04:36:48.934Z,1.60
2023-02-05T04:39:17.178Z,1.30
2023-02-05T04:41:44.650Z,1.23
2023-02-05T04:44:12.397Z,1.23
2023-02-05T04:46:41.811Z,1.63
2023-02-05T04:49:09.406Z,1.70
2023-02-05T04:51:38.315Z,1.67
2023-02-05T04:54:06.057Z,1.40
2023-02-05T04:56:33.537Z,1.65
2023-02-05T04:59:03.946Z,1.58
2023-02-05T05:01:31.801Z,1.33
2023-02-05T05:03:59.873Z,1.17
2023-02-05T05:06:28.187Z,1.40
2023-02-05T05:08:55.683Z,1.40
2023-02-05T05:11:23.676Z,1.40
2023-02-05T05:13:52.229Z,1.38
2023-02-05T05:16:20.614Z,1.30
2023-02-05T05:18:51.146Z,1.33
2023-02-05T05:21:18.647Z,2.17
2023-02-05T05:23:49.369Z,1.10
2023-02-05T05:26:19.985Z,1.65
2023-02-05T05:28:56.297Z,1.45
2023-02-05T05:33:53.574Z,1.17
2023-02-05T05:36:21.357Z,1.40
2023-02-05T05:38:51.628Z,1.58
2023-02-05T05:41:48.986Z,1.30
2023-02-05T05:44:19.226Z,1.40
2023-02-05T05:46:46.961Z,1.30
2023-02-05T05:49:14.345Z,1.63
2023-02-05T05:51:46.055Z,1.67
2023-02-05T05:54:14.519Z,1.58
2023-02-05T05:56:42.010Z,1.30
2023-02-05T05:59:13.218Z,1.25
2023-02-05T06:01:41.049Z,2.03
2023-02-05T06:04:12.037Z,1.15
2023-02-05T06:06:48.678Z,1.45
2023-02-05T06:09:17.248Z,1.70
2023-02-05T06:11:52.954Z,1.50
2023-02-05T06:14:27.050Z,1.45
2023-02-05T06:17:02.344Z,1.33
2023-02-05T06:19:31.149Z,1.42
2023-02-05T06:22:09.895Z,1.35
2023-02-05T06:24:47.208Z,1.20
2023-02-05T06:27:16.828Z,1.50
2023-02-05T06:29:44.728Z,1.58
2023-02-05T06:34:55.625Z,1.85
2023-02-05T06:37:34.150Z,1.50
2023-02-05T06:40:13.439Z,1.38
2023-02-05T06:42:41.352Z,1.77
2023-02-05T06:45:13.091Z,1.40
2023-02-05T06:47:43.538Z,1.77
2023-02-05T06:50:11.192Z,1.92
2023-02-05T06:52:38.935Z,2.33
2023-02-05T06:55:10.293Z,1.40
2023-02-05T06:57:38.833Z,1.90
2023-02-05T07:00:07.405Z,1.95
2023-02-05T07:02:37.917Z,1.92
2023-02-05T07:05:05.640Z,1.83
2023-02-05T07:07:33.726Z,1.70
2023-02-05T07:10:01.261Z,1.55
2023-02-05T07:12:28.905Z,1.42
2023-02-05T07:14:56.383Z,1.85
2023-02-05T07:17:23.873Z,1.30
2023-02-05T07:19:54.278Z,2.22
2023-02-05T07:22:21.877Z,1.88
2023-02-05T07:24:49.449Z,1.60
2023-02-05T07:27:19.828Z,1.20
2023-02-05T07:29:47.897Z,1.55
2023-02-05T07:32:15.906Z,1.52
2023-02-05T07:34:44.294Z,1.42
2023-02-05T07:37:16.410Z,1.45
2023-02-05T07:39:44.371Z,1.48
2023-02-05T07:42:12.723Z,1.08
2023-02-05T07:44:49.333Z,1.45
2023-02-05T07:47:17.444Z,1.60
2023-02-05T07:49:45.799Z,1.50
2023-02-05T07:52:19.309Z,1.40
2023-02-05T07:54:48.631Z,1.70
2023-02-05T07:57:29.480Z,1.38
2023-02-05T08:00:04.745Z,1.27
2023-02-05T08:05:22.877Z,1.70
2023-02-05T08:07:52.126Z,1.50
2023-02-05T08:10:19.736Z,1.45
2023-02-05T08:12:47.552Z,2.05
2023-02-05T08:15:15.118Z,1.88
2023-02-05T08:17:42.676Z,1.92
2023-02-05T08:20:11.003Z,2.33
2023-02-05T08:22:54.896Z,1.95
2023-02-05T08:25:34.413Z,2.33
2023-02-05T08:28:13.490Z,1.98
2023-02-05T08:30:41.633Z,2.03
2023-02-05T08:33:15.137Z,1.67
2023-02-05T08:35:50.073Z,1.92
2023-02-05T08:38:17.635Z,2.35
2023-02-05T08:40:49.737Z,1.65
2023-02-05T08:43:17.722Z,2.28
2023-02-05T08:45:47.994Z,2.10
2023-02-05T08:48:16.210Z,1.63
2023-02-05T08:50:46.319Z,1.83
2023-02-05T08:53:13.889Z,1.52
2023-02-05T08:55:44.151Z,1.60
2023-02-05T08:58:17.407Z,1.48
2023-02-05T09:00:51.402Z,1.40
2023-02-05T09:03:19.339Z,1.33
2023-02-05T09:05:49.879Z,1.77
2023-02-05T09:08:18.345Z,1.60
2023-02-05T09:10:49.076Z,1.15
2023-02-05T09:13:17.252Z,1.33
2023-02-05T09:15:48.453Z,1.98
2023-02-05T09:18:20.087Z,1.33
2023-02-05T09:20:52.257Z,1.30
2023-02-05T09:23:23.184Z,1.85
2023-02-05T09:25:50.748Z,1.42
2023-02-05T09:28:21.325Z,2.30
2023-02-05T09:30:48.897Z,1.50
2023-02-05T09:33:19.668Z,1.10
2023-02-05T09:35:48.542Z,1.42
2023-02-05T09:38:18.404Z,1.45
2023-02-05T09:40:51.757Z,1.25
2023-02-05T09:43:57.961Z,1.17
2023-02-05T09:46:44.930Z,1.48
2023-02-05T09:49:26.241Z,1.77
2023-02-05T09:52:09.017Z,1.70
2023-02-05T09:54:41.842Z,1.48
2023-02-05T09:57:16.497Z,1.10
2023-02-05T09:59:48.261Z,1.40
2023-02-05T10:02:16.679Z,1.73
2023-02-05T10:04:44.236Z,1.80
2023-02-05T10:07:48.279Z,1.27
2023-02-05T10:10:28.536Z,2.10
2023-02-05T10:13:24.904Z,1.85
2023-02-05T10:16:43.772Z,1.65
2023-02-05T10:19:14.274Z,1.30
2023-02-05T10:22:14.604Z,1.42
2023-02-05T10:25:23.817Z,1.50
2023-02-05T10:28:05.616Z,2.13
2023-02-05T10:31:01.536Z,1.30
2023-02-05T10:33:56.144Z,1.00
2023-02-05T10:36:26.630Z,1.15
2023-02-05T10:38:56.969Z,1.60
2023-02-05T10:41:40.147Z,1.27
2023-02-05T10:44:12.850Z,1.20
2023-02-05T10:46:41.721Z,1.50
2023-02-05T10:49:16.960Z,1.83
2023-02-05T10:51:48.704Z,1.73
2023-02-05T10:54:33.861Z,2.25
2023-02-05T10:57:02.370Z,1.80
2023-02-05T10:59:32.486Z,2.85
2023-02-05T11:02:06.773Z,2.00
2023-02-05T11:04:42.462Z,2.35
2023-02-05T11:07:19.935Z,1.90
2023-02-05T11:09:47.509Z,1.95
2023-02-05T11:12:35.291Z,1.98
2023-02-05T11:15:03.621Z,1.75
2023-02-05T11:17:36.916Z,1.63
2023-02-05T11:20:12.028Z,1.30
2023-02-05T11:22:41.195Z,1.65
2023-02-05T11:25:15.911Z,1.05
2023-02-05T11:27:53.029Z,1.48
2023-02-05T11:30:52.700Z,1.60
2023-02-05T11:33:26.434Z,1.70
2023-02-05T11:36:09.745Z,1.55
2023-02-05T11:38:57.281Z,2.85
2023-02-05T11:41:48.704Z,2.42
2023-02-05T11:44:30.633Z,1.70
2023-02-05T11:47:02.617Z,1.67
2023-02-05T11:49:37.026Z,2.13
2023-02-05T11:52:14.321Z,1.90
2023-02-05T11:54:49.232Z,1.73
2023-02-05T11:57:19.821Z,2.08
2023-02-05T12:00:00.352Z,1.95
2023-02-05T12:02:30.691Z,1.90
2023-02-05T12:05:09.154Z,3.80
2023-02-05T12:07:39.814Z,2.22
2023-02-05T12:10:16.510Z,1.58
2023-02-05T12:13:04.848Z,3.08
2023-02-05T12:15:54.745Z,1.83
2023-02-05T12:18:56.836Z,2.08
2023-02-05T12:21:43.241Z,2.28
2023-02-05T12:24:49.308Z,2.83
2023-02-05T12:27:25.794Z,2.63
2023-02-05T12:30:17.620Z,2.85
2023-02-05T12:33:15.627Z,3.50
2023-02-05T12:36:06.064Z,3.95
2023-02-05T12:39:02.438Z,3.10
2023-02-05T12:41:37.950Z,2.95
2023-02-05T12:44:25.744Z,2.95
2023-02-05T12:47:16.601Z,2.67
2023-02-05T12:50:32.225Z,3.05
2023-02-05T12:53:14.956Z,2.97
2023-02-05T12:56:08.597Z,2.78
2023-02-05T12:58:50.556Z,1.58
2023-02-05T13:01:39.547Z,2.85
2023-02-05T13:04:15.635Z,2.55
2023-02-05T13:06:53.204Z,3.40
2023-02-05T13:09:31.186Z,3.22
2023-02-05T13:12:07.361Z,2.80
2023-02-05T13:14:43.016Z,2.65
2023-02-05T13:17:30.439Z,2.88
2023-02-05T13:20:04.731Z,2.17
2023-02-05T13:22:56.288Z,2.90
2023-02-05T13:26:04.039Z,2.63
2023-02-05T13:28:40.499Z,3.55
2023-02-05T13:31:20.119Z,3.50
2023-02-05T13:33:48.647Z,3.22
2023-02-05T13:36:25.231Z,3.28
2023-02-05T13:39:11.418Z,2.97
2023-02-05T13:42:16.699Z,4.47
2023-02-05T13:45:06.239Z,3.17
2023-02-05T13:48:12.698Z,4.07
2023-02-05T13:51:17.599Z,2.33
2023-02-05T13:54:15.351Z,2.95
2023-02-05T13:57:08.982Z,2.38
2023-02-05T13:59:40.304Z,2.70
2023-02-05T14:02:25.530Z,2.45
2023-02-05T14:04:54.959Z,2.45
2023-02-05T14:07:35.746Z,2.33
2023-02-05T14:10:04.264Z,2.17
2023-02-05T14:12:36.314Z,2.22
2023-02-05T14:15:16.301Z,2.60
2023-02-05T14:17:44.121Z,2.10
2023-02-05T14:20:31.752Z,3.67
2023-02-05T14:23:03.716Z,2.47
2023-02-05T14:25:41.724Z,2.05
2023-02-05T14:28:15.183Z,2.75
2023-02-05T14:30:58.763Z,2.20
2023-02-05T14:33:26.929Z,2.50
2023-02-05T14:36:22.153Z,2.40
2023-02-05T14:41:53.116Z,3.05
2023-02-05T14:44:27.458Z,9.68
2023-02-05T14:47:16.091Z,2.63
2023-02-05T14:49:47.232Z,2.38
2023-02-05T14:52:20.811Z,3.05
2023-02-05T14:55:14.901Z,3.43
2023-02-05T14:57:54.386Z,2.30
2023-02-05T15:00:38.056Z,2.30
2023-02-05T15:03:12.444Z,2.90
2023-02-05T15:05:39.970Z,2.95
2023-02-05T15:08:21.269Z,2.88
2023-02-05T15:10:54.703Z,3.13
2023-02-05T15:13:24.903Z,2.90
2023-02-05T15:16:11.230Z,3.20
2023-02-05T15:18:53.489Z,2.78
2023-02-05T15:21:29.144Z,2.80
2023-02-05T15:24:12.270Z,4.32
2023-02-05T15:26:41.933Z,2.67
2023-02-05T15:29:14.507Z,3.25
2023-02-05T15:31:47.834Z,2.88
2023-02-05T15:34:32.925Z,2.72
2023-02-05T15:37:09.602Z,2.38
2023-02-05T15:39:55.189Z,2.72
2023-02-05T15:45:25.660Z,2.45
2023-02-05T15:48:07.425Z,2.30
2023-02-05T15:50:37.910Z,2.42
2023-02-05T15:53:10.408Z,2.60
2023-02-05T15:55:41.149Z,2.40
2023-02-05T15:58:21.317Z,2.97
2023-02-05T16:00:50.086Z,2.20
2023-02-05T16:03:33.520Z,2.10
2023-02-05T16:06:01.144Z,2.47
2023-02-05T16:08:29.350Z,2.45
2023-02-05T16:11:03.671Z,3.20
2023-02-05T16:13:31.331Z,2.50
2023-02-05T16:16:04.708Z,2.30
2023-02-05T16:18:57.523Z,2.60
2023-02-05T16:21:33.859Z,2.67
2023-02-05T16:24:06.358Z,2.42
2023-02-05T16:27:13.552Z,2.67
2023-02-05T16:29:50.232Z,2.60
2023-02-05T16:32:30.831Z,2.47
2023-02-05T16:35:01.021Z,2.58
2023-02-05T16:37:31.934Z,2.58
2023-02-05T16:40:06.525Z,2.08
2023-02-05T16:42:47.813Z,2.50
2023-02-05T16:45:25.869Z,2.20
2023-02-05T16:48:22.761Z,2.92
2023-02-05T16:50:51.162Z,3.35
2023-02-05T16:53:24.970Z,2.85
2023-02-05T16:56:11.926Z,2.08
2023-02-05T16:58:46.756Z,2.53
2023-02-05T17:01:21.635Z,2.25
2023-02-05T17:03:52.920Z,2.75
2023-02-05T17:06:21.203Z,2.53
2023-02-05T17:08:55.359Z,2.97
2023-02-05T17:11:38.739Z,2.30
2023-02-05T17:14:22.484Z,4.00
2023-02-05T17:16:57.842Z,2.90
2023-02-05T17:19:29.735Z,2.17
2023-02-05T17:22:27.715Z,2.75
2023-02-05T17:24:56.305Z,2.90
2023-02-05T17:27:33.182Z,2.90
2023-02-05T17:30:00.793Z,2.33
2023-02-05T17:32:30.090Z,2.45
2023-02-05T17:35:00.549Z,2.95
2023-02-05T17:37:28.032Z,2.92
2023-02-05T17:39:57.741Z,2.05
2023-02-05T17:42:26.425Z,3.10
2023-02-05T17:44:54.622Z,2.13
2023-02-05T17:47:22.149Z,2.20
2023-02-05T17:49:49.823Z,2.33
2023-02-05T17:52:17.422Z,2.67
2023-02-05T17:54:48.171Z,2.55
2023-02-05T17:57:21.638Z,2.45
2023-02-05T17:59:49.630Z,3.00
2023-02-05T18:02:17.324Z,1.98
2023-02-05T18:04:45.368Z,2.45
2023-02-05T18:07:33.269Z,2.33
2023-02-05T18:10:01.573Z,2.58
2023-02-05T18:12:31.070Z,1.70
2023-02-05T18:14:58.729Z,2.20
2023-02-05T18:17:26.213Z,2.50
2023-02-05T18:19:53.816Z,3.10
2023-02-05T18:22:21.702Z,2.13
2023-02-05T18:24:49.231Z,2.05
2023-02-05T18:27:16.726Z,2.28
2023-02-05T18:29:44.178Z,2.15
2023-02-05T18:32:12.772Z,2.22
2023-02-05T18:34:40.349Z,2.15
2023-02-05T18:37:07.985Z,2.45
2023-02-05T18:39:35.519Z,2.60
2023-02-05T18:42:03.058Z,2.78
2023-02-05T18:44:30.570Z,2.90
2023-02-05T18:46:58.568Z,2.13
2023-02-05T18:49:26.084Z,1.90
2023-02-05T18:51:53.600Z,2.53
2023-02-05T18:54:21.052Z,2.72
2023-02-05T18:56:48.844Z,2.50
2023-02-05T18:59:21.140Z,2.85
2023-02-05T19:01:48.653Z,2.28
2023-02-05T19:04:18.576Z,2.40
2023-02-05T19:06:53.520Z,2.38
2023-02-05T19:09:22.941Z,2.38
2023-02-05T19:11:50.916Z,2.67
2023-02-05T19:14:20.914Z,3.15
2023-02-05T19:16:49.529Z,2.13
2023-02-05T19:19:21.094Z,2.05
2023-02-05T19:21:59.899Z,2.60
2023-02-05T19:24:28.779Z,2.58
2023-02-05T19:26:58.943Z,2.70
2023-02-05T19:29:27.463Z,2.70
2023-02-05T19:31:55.167Z,2.75
2023-02-05T19:34:23.513Z,2.63
2023-02-05T19:36:51.153Z,2.85
2023-02-05T19:39:18.831Z,2.15
2023-02-05T19:41:48.400Z,2.70
2023-02-05T19:44:16.119Z,2.88
2023-02-05T19:46:44.705Z,2.97
2023-02-05T19:49:15.451Z,2.60
2023-02-05T19:51:48.096Z,2.88
2023-02-05T19:54:16.124Z,2.88
2023-02-05T19:56:44.459Z,2.78
2023-02-05T19:59:12.875Z,2.83
2023-02-05T20:01:45.844Z,3.13
2023-02-05T20:04:17.504Z,2.80
2023-02-05T20:06:46.628Z,2.65
2023-02-05T20:09:15.873Z,3.40
2023-02-05T20:11:46.183Z,3.53
2023-02-05T20:14:14.977Z,3.38
2023-02-05T20:16:42.645Z,2.78
2023-02-05T20:19:12.815Z,2.92
2023-02-05T20:21:40.896Z,3.08
2023-02-05T20:24:08.819Z,3.60
2023-02-05T20:26:38.548Z,3.88
2023-02-05T20:29:25.586Z,3.65
2023-02-05T20:31:54.939Z,3.30
2023-02-05T20:34:26.147Z,3.50
2023-02-05T20:36:56.714Z,3.28
2023-02-05T20:39:28.634Z,2.80
2023-02-05T20:41:58.119Z,3.47
2023-02-05T20:44:27.571Z,3.20
2023-02-05T20:46:56.571Z,2.92
2023-02-05T20:49:25.649Z,5.70
2023-02-05T20:51:54.244Z,2.58
2023-02-05T20:54:22.861Z,3.35
2023-02-05T20:56:51.577Z,3.55
2023-02-05T20:59:19.252Z,2.90
2023-02-05T21:01:46.851Z,4.40
2023-02-05T21:04:14.295Z,2.83
2023-02-05T21:06:41.857Z,3.17
2023-02-05T21:09:10.062Z,2.72
2023-02-05T21:11:38.452Z,3.55
2023-02-05T21:14:07.230Z,2.85
2023-02-05T21:16:36.432Z,3.33
2023-02-05T21:19:06.824Z,2.88
2023-02-05T21:21:36.654Z,2.97
2023-02-05T21:24:07.687Z,3.53
2023-02-05T21:26:40.702Z,2.83
2023-02-05T21:29:11.193Z,3.83
2023-02-05T21:31:52.841Z,3.15
2023-02-05T21:34:23.456Z,2.95
2023-02-05T21:36:52.099Z,2.38
2023-02-05T21:39:22.226Z,2.75
2023-02-05T21:41:54.230Z,2.83
2023-02-05T21:44:22.394Z,2.80
2023-02-05T21:46:50.057Z,2.42
2023-02-05T21:49:17.802Z,3.17
2023-02-05T21:51:45.473Z,2.70
2023-02-05T21:54:13.245Z,3.05
2023-02-05T21:56:43.166Z,2.70
2023-02-05T21:59:13.804Z,2.35
2023-02-05T22:01:42.784Z,3.08
2023-02-05T22:04:15.591Z,2.72
2023-02-05T22:06:43.906Z,3.00
2023-02-05T22:09:13.831Z,2.65
2023-02-05T22:11:41.390Z,2.88
2023-02-05T22:14:10.193Z,3.28
2023-02-05T22:16:38.402Z,3.80
2023-02-05T22:19:06.814Z,2.65
2023-02-05T22:21:37.339Z,2.70
2023-02-05T22:24:05.667Z,3.13
2023-02-05T22:26:37.322Z,2.63
2023-02-05T22:29:07.438Z,2.30
2023-02-05T22:31:35.716Z,2.42
2023-02-05T22:34:06.634Z,2.60
2023-02-05T22:36:44.395Z,2.95
2023-02-05T22:39:38.141Z,2.97
2023-02-05T22:42:33.233Z,2.80
2023-02-05T22:45:01.081Z,2.70
2023-02-05T22:47:29.515Z,2.70
2023-02-05T22:50:07.468Z,2.30
2023-02-05T22:52:37.881Z,2.00
2023-02-05T22:55:06.073Z,2.03
2023-02-05T22:57:33.750Z,2.10
2023-02-05T23:00:03.238Z,2.22
2023-02-05T23:02:38.869Z,2.47
2023-02-05T23:05:06.562Z,2.30
2023-02-05T23:07:34.196Z,2.40
2023-02-05T23:10:01.974Z,2.20
2023-02-05T23:12:37.156Z,2.25
2023-02-05T23:15:08.448Z,2.35
2023-02-05T23:17:39.638Z,2.90
2023-02-05T23:20:09.565Z,2.80
2023-02-05T23:22:46.904Z,2.60
2023-02-05T23:25:56.103Z,2.33
2023-02-05T23:28:43.634Z,2.15
2023-02-05T23:37:21.555Z,1.95
2023-02-05T23:40:19.798Z,2.28
2023-02-05T23:43:12.945Z,2.25
2023-02-05T23:48:47.193Z,2.05
2023-02-05T23:51:14.941Z,2.45
2023-02-05T23:54:14.582Z,3.92
2023-02-05T23:57:04.641Z,2.20
2023-02-05T23:59:32.303Z,2.00
